sensor_id;sensor_type;location;lat;lon;timestamp;P1;durP1;ratioP1;P2;durP2;ratioP2
13977;SDS011;7063;49.260;8.636;2023-05-23T00:01:50;4.63;;;3.38;;
13977;SDS011;7063;49.260;8.636;2023-05-23T00:04:18;3.13;;;2.97;;
13977;SDS011;7063;49.260;8.636;2023-05-23T00:06:44;4.65;;;4.20;;
13977;SDS011;7063;49.260;8.636;2023-05-23T00:09:11;3.70;;;3.25;;
13977;SDS011;7063;49.260;8.636;2023-05-23T00:11:37;10.88;;;5.68;;
13977;SDS011;7063;49.260;8.636;2023-05-23T00:14:03;5.10;;;3.78;;
13977;SDS011;7063;49.260;8.636;2023-05-23T00:16:32;4.47;;;3.08;;
13977;SDS011;7063;49.260;8.636;2023-05-23T00:18:58;5.07;;;3.03;;
13977;SDS011;7063;49.260;8.636;2023-05-23T00:21:25;6.28;;;3.58;;
13977;SDS011;7063;49.260;8.636;2023-05-23T00:23:53;6.35;;;2.65;;
13977;SDS011;7063;49.260;8.636;2023-05-23T00:26:19;3.67;;;2.65;;
13977;SDS011;7063;49.260;8.636;2023-05-23T00:28:45;7.55;;;4.10;;
13977;SDS011;7063;49.260;8.636;2023-05-23T00:31:11;4.25;;;3.90;;
13977;SDS011;7063;49.260;8.636;2023-05-23T00:33:37;11.82;;;5.72;;
13977;SDS011;7063;49.260;8.636;2023-05-23T00:36:03;5.32;;;3.60;;
13977;SDS011;7063;49.260;8.636;2023-05-23T00:38:30;8.88;;;5.38;;
13977;SDS011;7063;49.260;8.636;2023-05-23T00:40:56;3.67;;;3.40;;
13977;SDS011;7063;49.260;8.636;2023-05-23T00:43:21;5.88;;;2.83;;
13977;SDS011;7063;49.260;8.636;2023-05-23T00:45:47;3.90;;;2.95;;
13977;SDS011;7063;49.260;8.636;2023-05-23T00:48:13;2.40;;;2.30;;
13977;SDS011;7063;49.260;8.636;2023-05-23T00:50:40;2.75;;;2.55;;
13977;SDS011;7063;49.260;8.636;2023-05-23T00:53:06;2.45;;;2.35;;
13977;SDS011;7063;49.260;8.636;2023-05-23T00:55:32;4.32;;;4.05;;
13977;SDS011;7063;49.260;8.636;2023-05-23T00:57:58;2.88;;;2.67;;
13977;SDS011;7063;49.260;8.636;2023-05-23T01:00:24;4.25;;;3.95;;
13977;SDS011;7063;49.260;8.636;2023-05-23T01:02:51;3.58;;;3.28;;
13977;SDS011;7063;49.260;8.636;2023-05-23T01:05:17;3.33;;;3.13;;
13977;SDS011;7063;49.260;8.636;2023-05-23T01:07:44;2.45;;;2.25;;
13977;SDS011;7063;49.260;8.636;2023-05-23T01:10:10;5.63;;;4.20;;
13977;SDS011;7063;49.260;8.636;2023-05-23T01:18:19;2.80;;;2.63;;
13977;SDS011;7063;49.260;8.636;2023-05-23T01:20:48;3.58;;;3.38;;
13977;SDS011;7063;49.260;8.636;2023-05-23T01:24:21;2.67;;;2.47;;
13977;SDS011;7063;49.260;8.636;2023-05-23T01:26:12;3.78;;;3.45;;
13977;SDS011;7063;49.260;8.636;2023-05-23T01:28:44;2.95;;;2.85;;
13977;SDS011;7063;49.260;8.636;2023-05-23T01:31:11;4.68;;;3.67;;
13977;SDS011;7063;49.260;8.636;2023-05-23T01:33:39;3.63;;;3.33;;
13977;SDS011;7063;49.260;8.636;2023-05-23T01:36:05;8.20;;;4.05;;
13977;SDS011;7063;49.260;8.636;2023-05-23T01:38:32;8.20;;;2.92;;
13977;SDS011;7063;49.260;8.636;2023-05-23T01:40:58;1.77;;;1.70;;
13977;SDS011;7063;49.260;8.636;2023-05-23T01:43:24;2.20;;;1.88;;
13977;SDS011;7063;49.260;8.636;2023-05-23T01:45:51;3.10;;;2.53;;
13977;SDS011;7063;49.260;8.636;2023-05-23T01:48:18;4.55;;;3.67;;
13977;SDS011;7063;49.260;8.636;2023-05-23T01:50:44;6.35;;;3.17;;
13977;SDS011;7063;49.260;8.636;2023-05-23T01:53:11;2.15;;;2.05;;
13977;SDS011;7063;49.260;8.636;2023-05-23T01:55:37;5.82;;;1.70;;
13977;SDS011;7063;49.260;8.636;2023-05-23T01:58:04;2.15;;;1.95;;
13977;SDS011;7063;49.260;8.636;2023-05-23T02:00:30;2.92;;;2.72;;
13977;SDS011;7063;49.260;8.636;2023-05-23T02:02:56;3.05;;;2.65;;
13977;SDS011;7063;49.260;8.636;2023-05-23T02:05:22;3.03;;;2.80;;
13977;SDS011;7063;49.260;8.636;2023-05-23T02:07:48;1.10;;;1.10;;
13977;SDS011;7063;49.260;8.636;2023-05-23T02:10:14;3.50;;;3.20;;
13977;SDS011;7063;49.260;8.636;2023-05-23T02:12:40;2.97;;;2.67;;
13977;SDS011;7063;49.260;8.636;2023-05-23T02:15:06;3.80;;;3.50;;
13977;SDS011;7063;49.260;8.636;2023-05-23T02:17:33;3.37;;;2.83;;
13977;SDS011;7063;49.260;8.636;2023-05-23T02:19:59;2.55;;;2.35;;
13977;SDS011;7063;49.260;8.636;2023-05-23T02:22:25;2.27;;;2.07;;
13977;SDS011;7063;49.260;8.636;2023-05-23T02:24:51;1.47;;;1.43;;
13977;SDS011;7063;49.260;8.636;2023-05-23T02:27:17;2.50;;;1.80;;
13977;SDS011;7063;49.260;8.636;2023-05-23T02:29:43;2.93;;;2.83;;
13977;SDS011;7063;49.260;8.636;2023-05-23T02:32:09;2.38;;;2.22;;
13977;SDS011;7063;49.260;8.636;2023-05-23T02:34:36;2.93;;;2.73;;
13977;SDS011;7063;49.260;8.636;2023-05-23T02:37:02;2.83;;;2.63;;
13977;SDS011;7063;49.260;8.636;2023-05-23T02:39:28;2.78;;;2.63;;
13977;SDS011;7063;49.260;8.636;2023-05-23T02:41:54;2.47;;;2.37;;
13977;SDS011;7063;49.260;8.636;2023-05-23T02:44:20;2.17;;;1.97;;
13977;SDS011;7063;49.260;8.636;2023-05-23T02:46:46;2.60;;;2.37;;
13977;SDS011;7063;49.260;8.636;2023-05-23T02:49:12;3.03;;;2.83;;
13977;SDS011;7063;49.260;8.636;2023-05-23T02:51:38;2.63;;;2.50;;
13977;SDS011;7063;49.260;8.636;2023-05-23T02:54:04;2.83;;;2.73;;
13977;SDS011;7063;49.260;8.636;2023-05-23T02:56:30;1.63;;;1.53;;
13977;SDS011;7063;49.260;8.636;2023-05-23T02:58:56;2.60;;;2.50;;
13977;SDS011;7063;49.260;8.636;2023-05-23T03:01:22;4.87;;;1.83;;
13977;SDS011;7063;49.260;8.636;2023-05-23T03:03:48;3.13;;;2.07;;
13977;SDS011;7063;49.260;8.636;2023-05-23T03:06:13;1.40;;;1.40;;
13977;SDS011;7063;49.260;8.636;2023-05-23T03:08:40;5.97;;;3.83;;
13977;SDS011;7063;49.260;8.636;2023-05-23T03:11:07;5.00;;;3.50;;
13977;SDS011;7063;49.260;8.636;2023-05-23T03:13:33;3.50;;;3.20;;
13977;SDS011;7063;49.260;8.636;2023-05-23T03:15:59;3.70;;;3.50;;
13977;SDS011;7063;49.260;8.636;2023-05-23T03:18:25;1.97;;;1.87;;
13977;SDS011;7063;49.260;8.636;2023-05-23T03:20:51;1.00;;;1.00;;
13977;SDS011;7063;49.260;8.636;2023-05-23T03:23:17;1.93;;;1.83;;
13977;SDS011;7063;49.260;8.636;2023-05-23T03:25:43;2.33;;;1.83;;
13977;SDS011;7063;49.260;8.636;2023-05-23T03:28:09;3.20;;;2.73;;
13977;SDS011;7063;49.260;8.636;2023-05-23T03:30:36;10.90;;;4.30;;
13977;SDS011;7063;49.260;8.636;2023-05-23T03:33:02;3.27;;;3.07;;
13977;SDS011;7063;49.260;8.636;2023-05-23T03:35:28;2.57;;;2.40;;
13977;SDS011;7063;49.260;8.636;2023-05-23T03:37:54;3.50;;;2.67;;
13977;SDS011;7063;49.260;8.636;2023-05-23T03:40:20;8.13;;;3.43;;
13977;SDS011;7063;49.260;8.636;2023-05-23T03:42:47;3.03;;;2.77;;
13977;SDS011;7063;49.260;8.636;2023-05-23T03:45:13;3.90;;;3.47;;
13977;SDS011;7063;49.260;8.636;2023-05-23T03:47:39;1.20;;;1.17;;
13977;SDS011;7063;49.260;8.636;2023-05-23T03:50:06;3.07;;;2.60;;
13977;SDS011;7063;49.260;8.636;2023-05-23T03:52:33;2.60;;;2.40;;
13977;SDS011;7063;49.260;8.636;2023-05-23T03:54:58;3.67;;;3.40;;
13977;SDS011;7063;49.260;8.636;2023-05-23T03:57:25;6.80;;;4.17;;
13977;SDS011;7063;49.260;8.636;2023-05-23T03:59:51;3.10;;;2.33;;
13977;SDS011;7063;49.260;8.636;2023-05-23T04:02:16;1.17;;;1.17;;
13977;SDS011;7063;49.260;8.636;2023-05-23T04:04:42;2.10;;;2.00;;
13977;SDS011;7063;49.260;8.636;2023-05-23T04:07:08;4.77;;;4.47;;
13977;SDS011;7063;49.260;8.636;2023-05-23T04:09:35;2.20;;;2.10;;
13977;SDS011;7063;49.260;8.636;2023-05-23T04:12:01;3.83;;;3.63;;
13977;SDS011;7063;49.260;8.636;2023-05-23T04:14:27;2.23;;;2.17;;
13977;SDS011;7063;49.260;8.636;2023-05-23T04:16:53;4.40;;;2.53;;
13977;SDS011;7063;49.260;8.636;2023-05-23T04:19:19;2.20;;;1.93;;
13977;SDS011;7063;49.260;8.636;2023-05-23T04:21:45;1.35;;;1.25;;
13977;SDS011;7063;49.260;8.636;2023-05-23T04:24:11;2.87;;;2.13;;
13977;SDS011;7063;49.260;8.636;2023-05-23T04:26:37;2.50;;;2.35;;
13977;SDS011;7063;49.260;8.636;2023-05-23T04:29:03;2.60;;;2.50;;
13977;SDS011;7063;49.260;8.636;2023-05-23T04:31:30;4.37;;;2.27;;
13977;SDS011;7063;49.260;8.636;2023-05-23T04:33:57;3.20;;;1.53;;
13977;SDS011;7063;49.260;8.636;2023-05-23T04:36:23;2.03;;;1.70;;
13977;SDS011;7063;49.260;8.636;2023-05-23T04:38:50;1.63;;;1.63;;
13977;SDS011;7063;49.260;8.636;2023-05-23T04:41:16;2.27;;;2.17;;
13977;SDS011;7063;49.260;8.636;2023-05-23T04:43:47;4.97;;;2.88;;
13977;SDS011;7063;49.260;8.636;2023-05-23T04:46:18;1.65;;;1.55;;
13977;SDS011;7063;49.260;8.636;2023-05-23T04:48:51;2.53;;;2.33;;
13977;SDS011;7063;49.260;8.636;2023-05-23T04:51:17;1.58;;;1.58;;
13977;SDS011;7063;49.260;8.636;2023-05-23T04:53:45;2.83;;;2.63;;
13977;SDS011;7063;49.260;8.636;2023-05-23T04:56:11;2.77;;;2.60;;
13977;SDS011;7063;49.260;8.636;2023-05-23T04:58:37;2.63;;;2.33;;
13977;SDS011;7063;49.260;8.636;2023-05-23T05:01:05;1.08;;;1.08;;
13977;SDS011;7063;49.260;8.636;2023-05-23T05:03:33;2.47;;;2.37;;
13977;SDS011;7063;49.260;8.636;2023-05-23T05:05:59;2.20;;;2.00;;
13977;SDS011;7063;49.260;8.636;2023-05-23T05:08:25;1.45;;;1.35;;
13977;SDS011;7063;49.260;8.636;2023-05-23T05:10:53;2.85;;;2.05;;
13977;SDS011;7063;49.260;8.636;2023-05-23T05:13:19;3.77;;;2.53;;
13977;SDS011;7063;49.260;8.636;2023-05-23T05:15:45;1.40;;;1.40;;
13977;SDS011;7063;49.260;8.636;2023-05-23T05:18:11;3.07;;;2.87;;
13977;SDS011;7063;49.260;8.636;2023-05-23T05:20:38;4.17;;;1.97;;
13977;SDS011;7063;49.260;8.636;2023-05-23T05:23:04;2.30;;;1.93;;
13977;SDS011;7063;49.260;8.636;2023-05-23T05:25:30;2.70;;;1.77;;
13977;SDS011;7063;49.260;8.636;2023-05-23T05:27:59;4.07;;;1.90;;
13977;SDS011;7063;49.260;8.636;2023-05-23T05:30:29;1.47;;;1.40;;
13977;SDS011;7063;49.260;8.636;2023-05-23T05:32:57;1.70;;;1.23;;
13977;SDS011;7063;49.260;8.636;2023-05-23T05:35:23;1.97;;;1.87;;
13977;SDS011;7063;49.260;8.636;2023-05-23T05:37:49;2.53;;;2.37;;
13977;SDS011;7063;49.260;8.636;2023-05-23T05:40:15;2.42;;;2.00;;
13977;SDS011;7063;49.260;8.636;2023-05-23T05:42:41;4.47;;;2.17;;
13977;SDS011;7063;49.260;8.636;2023-05-23T05:45:07;1.73;;;1.63;;
13977;SDS011;7063;49.260;8.636;2023-05-23T05:47:33;4.57;;;2.10;;
13977;SDS011;7063;49.260;8.636;2023-05-23T05:50:00;1.13;;;1.13;;
13977;SDS011;7063;49.260;8.636;2023-05-23T05:52:27;1.58;;;1.48;;
13977;SDS011;7063;49.260;8.636;2023-05-23T05:54:53;1.17;;;1.17;;
13977;SDS011;7063;49.260;8.636;2023-05-23T05:57:21;1.60;;;1.53;;
13977;SDS011;7063;49.260;8.636;2023-05-23T05:59:47;4.63;;;3.03;;
13977;SDS011;7063;49.260;8.636;2023-05-23T06:02:13;1.07;;;1.07;;
13977;SDS011;7063;49.260;8.636;2023-05-23T06:04:39;0.97;;;0.97;;
13977;SDS011;7063;49.260;8.636;2023-05-23T06:07:05;2.80;;;2.70;;
13977;SDS011;7063;49.260;8.636;2023-05-23T06:09:31;1.07;;;1.07;;
13977;SDS011;7063;49.260;8.636;2023-05-23T06:11:57;1.75;;;1.65;;
13977;SDS011;7063;49.260;8.636;2023-05-23T06:14:23;1.65;;;1.63;;
13977;SDS011;7063;49.260;8.636;2023-05-23T06:16:49;0.90;;;0.90;;
13977;SDS011;7063;49.260;8.636;2023-05-23T06:19:15;1.58;;;1.48;;
13977;SDS011;7063;49.260;8.636;2023-05-23T06:21:41;1.00;;;1.00;;
13977;SDS011;7063;49.260;8.636;2023-05-23T06:24:07;2.43;;;2.10;;
13977;SDS011;7063;49.260;8.636;2023-05-23T06:26:32;1.48;;;1.42;;
13977;SDS011;7063;49.260;8.636;2023-05-23T06:28:58;0.70;;;0.70;;
13977;SDS011;7063;49.260;8.636;2023-05-23T06:31:24;1.38;;;1.20;;
13977;SDS011;7063;49.260;8.636;2023-05-23T06:33:50;1.02;;;1.02;;
13977;SDS011;7063;49.260;8.636;2023-05-23T06:36:18;1.80;;;1.70;;
13977;SDS011;7063;49.260;8.636;2023-05-23T06:38:44;1.97;;;1.87;;
13977;SDS011;7063;49.260;8.636;2023-05-23T06:41:10;2.75;;;2.53;;
13977;SDS011;7063;49.260;8.636;2023-05-23T06:43:36;1.95;;;1.48;;
13977;SDS011;7063;49.260;8.636;2023-05-23T06:46:02;1.53;;;1.53;;
13977;SDS011;7063;49.260;8.636;2023-05-23T06:48:28;1.10;;;1.10;;
13977;SDS011;7063;49.260;8.636;2023-05-23T06:50:54;1.40;;;1.30;;
13977;SDS011;7063;49.260;8.636;2023-05-23T06:53:20;1.45;;;1.45;;
13977;SDS011;7063;49.260;8.636;2023-05-23T06:55:46;1.40;;;1.05;;
13977;SDS011;7063;49.260;8.636;2023-05-23T06:58:12;1.27;;;1.23;;
13977;SDS011;7063;49.260;8.636;2023-05-23T07:00:38;1.00;;;1.00;;
13977;SDS011;7063;49.260;8.636;2023-05-23T07:03:05;1.17;;;1.10;;
13977;SDS011;7063;49.260;8.636;2023-05-23T07:05:31;1.70;;;1.60;;
13977;SDS011;7063;49.260;8.636;2023-05-23T07:07:58;1.47;;;1.30;;
13977;SDS011;7063;49.260;8.636;2023-05-23T07:10:24;2.07;;;1.97;;
13977;SDS011;7063;49.260;8.636;2023-05-23T07:12:50;2.97;;;2.78;;
13977;SDS011;7063;49.260;8.636;2023-05-23T07:15:16;1.70;;;1.60;;
13977;SDS011;7063;49.260;8.636;2023-05-23T07:17:42;2.43;;;1.67;;
13977;SDS011;7063;49.260;8.636;2023-05-23T07:20:09;1.63;;;1.63;;
13977;SDS011;7063;49.260;8.636;2023-05-23T07:22:35;0.80;;;0.80;;
13977;SDS011;7063;49.260;8.636;2023-05-23T07:25:01;0.90;;;0.90;;
13977;SDS011;7063;49.260;8.636;2023-05-23T07:27:27;1.10;;;1.10;;
13977;SDS011;7063;49.260;8.636;2023-05-23T07:29:53;1.98;;;1.92;;
13977;SDS011;7063;49.260;8.636;2023-05-23T07:32:21;1.23;;;1.17;;
13977;SDS011;7063;49.260;8.636;2023-05-23T07:34:47;1.03;;;1.03;;
13977;SDS011;7063;49.260;8.636;2023-05-23T07:37:13;0.68;;;0.68;;
13977;SDS011;7063;49.260;8.636;2023-05-23T07:39:40;1.35;;;1.25;;
13977;SDS011;7063;49.260;8.636;2023-05-23T07:42:06;0.77;;;0.77;;
13977;SDS011;7063;49.260;8.636;2023-05-23T07:44:32;0.88;;;0.88;;
13977;SDS011;7063;49.260;8.636;2023-05-23T07:46:58;1.85;;;1.75;;
13977;SDS011;7063;49.260;8.636;2023-05-23T07:49:23;1.25;;;1.20;;
13977;SDS011;7063;49.260;8.636;2023-05-23T07:51:50;1.45;;;1.35;;
13977;SDS011;7063;49.260;8.636;2023-05-23T07:54:16;0.73;;;0.73;;
13977;SDS011;7063;49.260;8.636;2023-05-23T07:56:42;1.52;;;1.30;;
13977;SDS011;7063;49.260;8.636;2023-05-23T07:59:08;1.00;;;1.00;;
13977;SDS011;7063;49.260;8.636;2023-05-23T08:01:34;3.03;;;1.15;;
13977;SDS011;7063;49.260;8.636;2023-05-23T08:04:00;2.28;;;1.20;;
13977;SDS011;7063;49.260;8.636;2023-05-23T08:06:27;0.82;;;0.82;;
13977;SDS011;7063;49.260;8.636;2023-05-23T08:08:53;0.98;;;0.98;;
13977;SDS011;7063;49.260;8.636;2023-05-23T08:11:19;1.02;;;1.02;;
13977;SDS011;7063;49.260;8.636;2023-05-23T08:13:45;1.15;;;1.15;;
13977;SDS011;7063;49.260;8.636;2023-05-23T08:16:11;0.60;;;0.60;;
13977;SDS011;7063;49.260;8.636;2023-05-23T08:18:37;0.60;;;0.60;;
13977;SDS011;7063;49.260;8.636;2023-05-23T08:21:03;1.02;;;1.02;;
13977;SDS011;7063;49.260;8.636;2023-05-23T08:23:29;3.20;;;1.00;;
13977;SDS011;7063;49.260;8.636;2023-05-23T08:25:55;1.48;;;1.38;;
13977;SDS011;7063;49.260;8.636;2023-05-23T08:28:21;1.60;;;1.58;;
13977;SDS011;7063;49.260;8.636;2023-05-23T08:30:47;1.58;;;1.48;;
13977;SDS011;7063;49.260;8.636;2023-05-23T08:33:13;3.53;;;1.40;;
13977;SDS011;7063;49.260;8.636;2023-05-23T08:35:39;1.38;;;1.30;;
13977;SDS011;7063;49.260;8.636;2023-05-23T08:38:05;1.00;;;1.00;;
13977;SDS011;7063;49.260;8.636;2023-05-23T08:40:32;1.10;;;1.08;;
13977;SDS011;7063;49.260;8.636;2023-05-23T08:42:59;1.75;;;1.65;;
13977;SDS011;7063;49.260;8.636;2023-05-23T08:45:24;3.60;;;1.10;;
13977;SDS011;7063;49.260;8.636;2023-05-23T08:47:50;1.05;;;1.05;;
13977;SDS011;7063;49.260;8.636;2023-05-23T08:50:17;1.23;;;1.08;;
13977;SDS011;7063;49.260;8.636;2023-05-23T08:52:53;0.80;;;0.80;;
13977;SDS011;7063;49.260;8.636;2023-05-23T08:55:26;0.77;;;0.77;;
13977;SDS011;7063;49.260;8.636;2023-05-23T08:57:58;1.90;;;1.75;;
13977;SDS011;7063;49.260;8.636;2023-05-23T09:00:25;1.08;;;1.08;;
13977;SDS011;7063;49.260;8.636;2023-05-23T09:02:51;1.02;;;1.02;;
13977;SDS011;7063;49.260;8.636;2023-05-23T09:05:19;0.80;;;0.80;;
13977;SDS011;7063;49.260;8.636;2023-05-23T09:07:45;0.82;;;0.82;;
13977;SDS011;7063;49.260;8.636;2023-05-23T09:10:12;1.23;;;1.23;;
13977;SDS011;7063;49.260;8.636;2023-05-23T09:12:41;1.02;;;1.02;;
13977;SDS011;7063;49.260;8.636;2023-05-23T09:15:07;0.70;;;0.70;;
13977;SDS011;7063;49.260;8.636;2023-05-23T09:17:34;0.85;;;0.85;;
13977;SDS011;7063;49.260;8.636;2023-05-23T09:20:01;1.00;;;1.00;;
13977;SDS011;7063;49.260;8.636;2023-05-23T09:22:29;0.80;;;0.80;;
13977;SDS011;7063;49.260;8.636;2023-05-23T09:24:55;0.90;;;0.90;;
13977;SDS011;7063;49.260;8.636;2023-05-23T09:27:21;1.10;;;1.10;;
13977;SDS011;7063;49.260;8.636;2023-05-23T09:29:48;2.83;;;1.08;;
13977;SDS011;7063;49.260;8.636;2023-05-23T09:32:15;0.80;;;0.80;;
13977;SDS011;7063;49.260;8.636;2023-05-23T09:34:43;0.93;;;0.93;;
13977;SDS011;7063;49.260;8.636;2023-05-23T09:37:20;1.20;;;1.20;;
13977;SDS011;7063;49.260;8.636;2023-05-23T09:39:48;1.33;;;1.33;;
13977;SDS011;7063;49.260;8.636;2023-05-23T09:42:20;0.73;;;0.73;;
13977;SDS011;7063;49.260;8.636;2023-05-23T09:44:47;0.77;;;0.77;;
13977;SDS011;7063;49.260;8.636;2023-05-23T09:47:14;1.52;;;1.42;;
13977;SDS011;7063;49.260;8.636;2023-05-23T09:49:42;0.57;;;0.57;;
13977;SDS011;7063;49.260;8.636;2023-05-23T09:52:08;1.17;;;1.17;;
13977;SDS011;7063;49.260;8.636;2023-05-23T09:54:35;0.88;;;0.88;;
13977;SDS011;7063;49.260;8.636;2023-05-23T09:57:04;0.93;;;0.93;;
13977;SDS011;7063;49.260;8.636;2023-05-23T09:59:34;0.88;;;0.88;;
13977;SDS011;7063;49.260;8.636;2023-05-23T10:02:03;0.65;;;0.65;;
13977;SDS011;7063;49.260;8.636;2023-05-23T10:04:31;0.68;;;0.68;;
13977;SDS011;7063;49.260;8.636;2023-05-23T10:07:16;1.65;;;1.63;;
13977;SDS011;7063;49.260;8.636;2023-05-23T10:09:44;0.90;;;0.90;;
13977;SDS011;7063;49.260;8.636;2023-05-23T10:14:42;0.75;;;0.75;;
13977;SDS011;7063;49.260;8.636;2023-05-23T10:17:19;1.00;;;1.00;;
13977;SDS011;7063;49.260;8.636;2023-05-23T10:19:47;0.60;;;0.60;;
13977;SDS011;7063;49.260;8.636;2023-05-23T10:22:16;0.85;;;0.85;;
13977;SDS011;7063;49.260;8.636;2023-05-23T10:24:43;1.08;;;1.08;;
13977;SDS011;7063;49.260;8.636;2023-05-23T10:27:10;1.40;;;1.30;;
13977;SDS011;7063;49.260;8.636;2023-05-23T10:29:36;1.27;;;1.25;;
13977;SDS011;7063;49.260;8.636;2023-05-23T10:32:02;1.00;;;1.00;;
13977;SDS011;7063;49.260;8.636;2023-05-23T10:37:05;1.00;;;1.00;;
13977;SDS011;7063;49.260;8.636;2023-05-23T10:41:59;0.80;;;0.80;;
13977;SDS011;7063;49.260;8.636;2023-05-23T10:44:29;1.63;;;1.40;;
13977;SDS011;7063;49.260;8.636;2023-05-23T10:46:59;0.88;;;0.88;;
13977;SDS011;7063;49.260;8.636;2023-05-23T10:52:08;0.80;;;0.80;;
13977;SDS011;7063;49.260;8.636;2023-05-23T10:54:41;1.60;;;1.15;;
13977;SDS011;7063;49.260;8.636;2023-05-23T10:57:08;1.63;;;1.52;;
13977;SDS011;7063;49.260;8.636;2023-05-23T10:59:35;0.73;;;0.73;;
13977;SDS011;7063;49.260;8.636;2023-05-23T11:02:02;0.70;;;0.70;;
13977;SDS011;7063;49.260;8.636;2023-05-23T11:04:28;1.25;;;1.15;;
13977;SDS011;7063;49.260;8.636;2023-05-23T11:06:54;1.10;;;1.10;;
13977;SDS011;7063;49.260;8.636;2023-05-23T11:09:21;0.98;;;0.98;;
13977;SDS011;7063;49.260;8.636;2023-05-23T11:14:16;0.70;;;0.70;;
13977;SDS011;7063;49.260;8.636;2023-05-23T11:16:43;0.70;;;0.70;;
13977;SDS011;7063;49.260;8.636;2023-05-23T11:21:42;1.02;;;1.02;;
13977;SDS011;7063;49.260;8.636;2023-05-23T11:24:08;2.28;;;1.67;;
13977;SDS011;7063;49.260;8.636;2023-05-23T11:26:34;0.70;;;0.70;;
13977;SDS011;7063;49.260;8.636;2023-05-23T11:29:00;0.85;;;0.85;;
13977;SDS011;7063;49.260;8.636;2023-05-23T11:31:28;1.08;;;1.08;;
13977;SDS011;7063;49.260;8.636;2023-05-23T11:33:54;1.10;;;1.05;;
13977;SDS011;7063;49.260;8.636;2023-05-23T11:36:23;0.88;;;0.88;;
13977;SDS011;7063;49.260;8.636;2023-05-23T11:38:50;0.70;;;0.70;;
13977;SDS011;7063;49.260;8.636;2023-05-23T11:41:17;0.85;;;0.85;;
13977;SDS011;7063;49.260;8.636;2023-05-23T11:43:52;0.80;;;0.80;;
13977;SDS011;7063;49.260;8.636;2023-05-23T11:46:19;0.82;;;0.82;;
13977;SDS011;7063;49.260;8.636;2023-05-23T11:48:45;0.82;;;0.82;;
13977;SDS011;7063;49.260;8.636;2023-05-23T11:51:12;0.73;;;0.73;;
13977;SDS011;7063;49.260;8.636;2023-05-23T11:53:38;1.20;;;1.20;;
13977;SDS011;7063;49.260;8.636;2023-05-23T11:56:04;5.15;;;1.52;;
13977;SDS011;7063;49.260;8.636;2023-05-23T11:58:34;0.80;;;0.80;;
13977;SDS011;7063;49.260;8.636;2023-05-23T12:01:00;1.25;;;1.15;;
13977;SDS011;7063;49.260;8.636;2023-05-23T12:03:27;0.60;;;0.60;;
13977;SDS011;7063;49.260;8.636;2023-05-23T12:05:53;0.70;;;0.70;;
13977;SDS011;7063;49.260;8.636;2023-05-23T12:08:19;0.73;;;0.73;;
13977;SDS011;7063;49.260;8.636;2023-05-23T12:11:03;0.77;;;0.77;;
13977;SDS011;7063;49.260;8.636;2023-05-23T12:13:31;0.57;;;0.57;;
13977;SDS011;7063;49.260;8.636;2023-05-23T12:16:00;0.80;;;0.80;;
13977;SDS011;7063;49.260;8.636;2023-05-23T12:18:30;0.70;;;0.70;;
13977;SDS011;7063;49.260;8.636;2023-05-23T12:21:03;0.82;;;0.82;;
13977;SDS011;7063;49.260;8.636;2023-05-23T12:23:30;0.60;;;0.60;;
13977;SDS011;7063;49.260;8.636;2023-05-23T12:25:56;0.63;;;0.63;;
13977;SDS011;7063;49.260;8.636;2023-05-23T12:28:36;1.80;;;1.70;;
13977;SDS011;7063;49.260;8.636;2023-05-23T12:31:09;0.52;;;0.52;;
13977;SDS011;7063;49.260;8.636;2023-05-23T12:33:43;1.33;;;1.33;;
13977;SDS011;7063;49.260;8.636;2023-05-23T12:36:10;1.55;;;1.45;;
13977;SDS011;7063;49.260;8.636;2023-05-23T12:38:36;0.63;;;0.63;;
13977;SDS011;7063;49.260;8.636;2023-05-23T12:41:17;1.00;;;1.00;;
13977;SDS011;7063;49.260;8.636;2023-05-23T12:43:55;0.88;;;0.88;;
13977;SDS011;7063;49.260;8.636;2023-05-23T12:46:25;0.98;;;0.98;;
13977;SDS011;7063;49.260;8.636;2023-05-23T12:48:51;0.88;;;0.88;;
13977;SDS011;7063;49.260;8.636;2023-05-23T12:51:17;0.65;;;0.65;;
13977;SDS011;7063;49.260;8.636;2023-05-23T12:53:43;0.90;;;0.90;;
13977;SDS011;7063;49.260;8.636;2023-05-23T12:56:09;1.13;;;1.13;;
13977;SDS011;7063;49.260;8.636;2023-05-23T12:58:36;1.15;;;1.15;;
13977;SDS011;7063;49.260;8.636;2023-05-23T13:01:02;1.05;;;1.05;;
13977;SDS011;7063;49.260;8.636;2023-05-23T13:03:28;0.70;;;0.70;;
13977;SDS011;7063;49.260;8.636;2023-05-23T13:05:57;1.92;;;1.83;;
13977;SDS011;7063;49.260;8.636;2023-05-23T13:08:24;0.80;;;0.80;;
13977;SDS011;7063;49.260;8.636;2023-05-23T13:10:52;1.67;;;1.63;;
13977;SDS011;7063;49.260;8.636;2023-05-23T13:13:18;0.90;;;0.90;;
13977;SDS011;7063;49.260;8.636;2023-05-23T13:15:44;1.15;;;1.15;;
13977;SDS011;7063;49.260;8.636;2023-05-23T13:18:11;1.63;;;1.58;;
13977;SDS011;7063;49.260;8.636;2023-05-23T13:20:37;2.58;;;2.20;;
13977;SDS011;7063;49.260;8.636;2023-05-23T13:23:03;0.88;;;0.88;;
13977;SDS011;7063;49.260;8.636;2023-05-23T13:25:29;1.60;;;1.60;;
13977;SDS011;7063;49.260;8.636;2023-05-23T13:27:55;0.93;;;0.93;;
13977;SDS011;7063;49.260;8.636;2023-05-23T13:30:22;1.10;;;1.00;;
13977;SDS011;7063;49.260;8.636;2023-05-23T13:32:49;1.50;;;1.42;;
13977;SDS011;7063;49.260;8.636;2023-05-23T13:35:15;1.20;;;1.20;;
13977;SDS011;7063;49.260;8.636;2023-05-23T13:37:41;1.63;;;1.60;;
13977;SDS011;7063;49.260;8.636;2023-05-23T13:40:07;1.23;;;1.23;;
13977;SDS011;7063;49.260;8.636;2023-05-23T13:42:33;1.13;;;1.13;;
13977;SDS011;7063;49.260;8.636;2023-05-23T13:45:00;1.98;;;1.88;;
13977;SDS011;7063;49.260;8.636;2023-05-23T13:47:26;0.80;;;0.80;;
13977;SDS011;7063;49.260;8.636;2023-05-23T13:49:52;1.00;;;1.00;;
13977;SDS011;7063;49.260;8.636;2023-05-23T13:52:17;1.92;;;1.75;;
13977;SDS011;7063;49.260;8.636;2023-05-23T13:54:44;2.13;;;1.30;;
13977;SDS011;7063;49.260;8.636;2023-05-23T13:57:10;1.48;;;1.00;;
13977;SDS011;7063;49.260;8.636;2023-05-23T13:59:36;1.08;;;1.08;;
13977;SDS011;7063;49.260;8.636;2023-05-23T14:02:02;0.75;;;0.75;;
13977;SDS011;7063;49.260;8.636;2023-05-23T14:04:28;2.22;;;2.13;;
13977;SDS011;7063;49.260;8.636;2023-05-23T14:06:54;1.15;;;1.15;;
13977;SDS011;7063;49.260;8.636;2023-05-23T14:09:20;1.80;;;1.70;;
13977;SDS011;7063;49.260;8.636;2023-05-23T14:11:46;1.10;;;1.10;;
13977;SDS011;7063;49.260;8.636;2023-05-23T14:14:12;0.93;;;0.93;;
13977;SDS011;7063;49.260;8.636;2023-05-23T14:16:38;5.43;;;0.95;;
13977;SDS011;7063;49.260;8.636;2023-05-23T14:19:04;1.33;;;1.33;;
13977;SDS011;7063;49.260;8.636;2023-05-23T14:21:30;0.73;;;0.73;;
13977;SDS011;7063;49.260;8.636;2023-05-23T14:23:56;1.00;;;1.00;;
13977;SDS011;7063;49.260;8.636;2023-05-23T14:26:22;2.00;;;1.90;;
13977;SDS011;7063;49.260;8.636;2023-05-23T14:28:48;0.50;;;0.50;;
13977;SDS011;7063;49.260;8.636;2023-05-23T14:31:14;1.75;;;1.33;;
13977;SDS011;7063;49.260;8.636;2023-05-23T14:33:40;3.30;;;2.10;;
13977;SDS011;7063;49.260;8.636;2023-05-23T14:36:06;0.80;;;0.80;;
13977;SDS011;7063;49.260;8.636;2023-05-23T14:38:32;1.20;;;1.17;;
13977;SDS011;7063;49.260;8.636;2023-05-23T14:40:58;2.08;;;1.70;;
13977;SDS011;7063;49.260;8.636;2023-05-23T14:43:24;1.38;;;1.30;;
13977;SDS011;7063;49.260;8.636;2023-05-23T14:45:50;1.02;;;1.02;;
13977;SDS011;7063;49.260;8.636;2023-05-23T14:48:16;1.20;;;1.20;;
13977;SDS011;7063;49.260;8.636;2023-05-23T14:50:42;1.48;;;1.42;;
13977;SDS011;7063;49.260;8.636;2023-05-23T14:53:08;0.75;;;0.75;;
13977;SDS011;7063;49.260;8.636;2023-05-23T14:55:34;0.70;;;0.70;;
13977;SDS011;7063;49.260;8.636;2023-05-23T14:58:00;1.23;;;1.23;;
13977;SDS011;7063;49.260;8.636;2023-05-23T15:00:27;0.65;;;0.65;;
13977;SDS011;7063;49.260;8.636;2023-05-23T15:02:53;0.90;;;0.90;;
13977;SDS011;7063;49.260;8.636;2023-05-23T15:05:20;1.10;;;1.10;;
13977;SDS011;7063;49.260;8.636;2023-05-23T15:07:46;0.60;;;0.60;;
13977;SDS011;7063;49.260;8.636;2023-05-23T15:10:12;1.02;;;1.00;;
13977;SDS011;7063;49.260;8.636;2023-05-23T15:12:39;1.75;;;1.65;;
13977;SDS011;7063;49.260;8.636;2023-05-23T15:15:05;0.90;;;0.90;;
13977;SDS011;7063;49.260;8.636;2023-05-23T15:17:32;0.60;;;0.60;;
13977;SDS011;7063;49.260;8.636;2023-05-23T15:19:58;0.85;;;0.85;;